Terminal Aerodrome Forecast
Issued by NWS

Home | Current Version | Previous Version | Graphics & Text | Print | Product List | Glossary On
Versions: 1 2 3 4 5 6 7 8 9 10 11 12 13 14 15 16 17 18 19 20 21 22 23 24 25 26 27 28 29 30 31 32
432
FTUS43 KLOT 161502 AAA
TAFORD
TAF AMD
KORD 161502Z 1615/1718 32012KT P6SM OVC022
     FM161900 VRB03KT P6SM BKN025 BKN250
     FM170000 11004KT P6SM SCT025 BKN150
     FM170400 14005KT P6SM SCT025 BKN120
     FM170900 17008KT P6SM BKN200
     FM171500 18014G24KT P6SM BKN120=

USA.gov is the U.S. government's official web portal to all federal, state and local government web resources and services.